OIFS  Shahrekord  Airport

Shahrekord, Iran

Add Bookmark
Status IATA
Operational CQD
Latitude Longitude
32° 17' 49" N 50° 50' 31" E
32.297199 50.842201
Local (DST + 5) UTC (GMT + 4)
Apr 1, 2015 07:38 Apr 1, 2015 03:08
Sunrise-Sunset Local UTC
Begin Civil Twilight 06:28 01:58
Sunrise 06:53 02:23
Sunset 07:27 14:57
End Civil Twilight 07:52 15:22
VFR
VFR
MVFR
MVFR
IFR
VFR
LIFR
VFR
Unknown
Unavailable

Current Weather

METAR Observed VFR
OIFS 010200Z 30004KT CAVOK M03/M06 Q1015 Wed, Apr 1, 2015 @ 02:00 UTC
(1 Hour, 8 Minutes ago)
Visual Flight Rules
Wind Visibility Clouds Conditions
300° at 4 knots (7 kph) 10 km or more
  • Clear skies
  • No significant weather
Temperatures Readings Precipitation
Current Temp -3°C (27°F)
Dewpoint -6°C (21°F)
Humidity 80%
Altimeter 29.97"Hg
Sea Level Pressure 1015mb
Field Elevation 6817.59'
None Recorded

Additional weather within a 185.2km radius of OIFS

Map ICAO Location
OIFM 108km E (062°)
OIAI 151.5km W (258°)
VFR
VFR
MVFR
MVFR
IFR
VFR
LIFR
VFR
Unknown
Unavailable
-
-

CheckWX.com is intended as a tool to help pilots better visualize weather data. It is not intended as a substitute for an official weather briefing obtained from a Flight Service Station. CheckWX.com does not meet the FAA requirements for an official pre-flight weather briefing. Therefore, it's important that pilots still call and obtain an official FSS pre-flight weather briefing.